createdAt,value
2017-07-06T00:01:30.081Z,79.20
2017-07-06T00:03:57.639Z,79.50
2017-07-06T00:06:25.184Z,79.40
2017-07-06T00:08:58.573Z,79.30
2017-07-06T00:11:31.565Z,79.40
2017-07-06T00:14:03.608Z,79.70
2017-07-06T00:16:31.169Z,79.60
2017-07-06T00:18:59.469Z,79.80
2017-07-06T00:21:27.005Z,79.90
2017-07-06T00:24:00.175Z,80.10
2017-07-06T00:26:33.164Z,80.40
2017-07-06T00:29:02.592Z,80.80
2017-07-06T00:31:31.255Z,80.80
2017-07-06T00:33:59.362Z,80.90
2017-07-06T00:36:31.506Z,81.10
2017-07-06T00:39:02.746Z,81.20
2017-07-06T00:41:36.200Z,81.40
2017-07-06T00:44:03.733Z,81.60
2017-07-06T00:46:32.694Z,81.80
2017-07-06T00:49:02.343Z,82.10
2017-07-06T00:51:29.946Z,82.30
2017-07-06T00:54:01.285Z,82.20
2017-07-06T00:56:32.374Z,82.30
2017-07-06T00:58:59.932Z,82.20
2017-07-06T01:01:27.475Z,82.20
2017-07-06T01:03:57.429Z,82.20
2017-07-06T01:06:24.969Z,82.30
2017-07-06T01:08:52.501Z,82.50
2017-07-06T01:11:22.520Z,82.50
2017-07-06T01:13:50.045Z,82.50
2017-07-06T01:16:18.004Z,82.30
2017-07-06T01:18:45.540Z,82.30
2017-07-06T01:21:13.091Z,82.40
2017-07-06T01:23:40.637Z,82.40
2017-07-06T01:26:08.225Z,82.40
2017-07-06T01:28:35.773Z,82.60
2017-07-06T01:31:05.416Z,82.90
2017-07-06T01:33:35.352Z,83.20
2017-07-06T01:36:06.338Z,83.50
2017-07-06T01:38:37.017Z,83.50
2017-07-06T01:41:04.568Z,83.30
2017-07-06T01:43:32.521Z,83.10
2017-07-06T01:46:04.345Z,82.90
2017-07-06T01:48:31.906Z,82.90
2017-07-06T01:51:00.798Z,83.10
2017-07-06T01:53:28.356Z,83.00
2017-07-06T01:55:55.903Z,83.00
2017-07-06T01:58:30.630Z,83.20
2017-07-06T02:00:58.174Z,83.30
2017-07-06T02:03:25.712Z,83.40
2017-07-06T02:05:55.518Z,83.20
2017-07-06T02:08:23.056Z,83.10
2017-07-06T02:10:51.490Z,83.30
2017-07-06T02:13:22.697Z,83.70
2017-07-06T02:15:50.265Z,84.00
2017-07-06T02:18:17.805Z,83.80
2017-07-06T02:20:47.528Z,84.00
2017-07-06T02:23:25.313Z,84.20
2017-07-06T02:25:53.236Z,84.40
2017-07-06T02:28:25.576Z,84.40
2017-07-06T02:30:53.105Z,84.40
2017-07-06T02:33:23.534Z,84.40
2017-07-06T02:35:55.608Z,84.30
2017-07-06T02:38:26.440Z,84.30
2017-07-06T02:40:56.552Z,84.40
2017-07-06T02:43:24.497Z,85.20
2017-07-06T02:45:52.050Z,85.20
2017-07-06T02:48:19.579Z,85.10
2017-07-06T02:50:48.653Z,84.90
2017-07-06T02:53:16.724Z,85.10
2017-07-06T02:55:44.277Z,85.00
2017-07-06T02:58:11.808Z,85.30
2017-07-06T03:00:39.419Z,85.00
2017-07-06T03:03:06.954Z,85.10
2017-07-06T03:05:34.497Z,85.30
2017-07-06T03:08:02.785Z,85.10
2017-07-06T03:10:33.708Z,85.20
2017-07-06T03:13:01.661Z,86.40
2017-07-06T03:15:31.590Z,86.50
2017-07-06T03:18:00.255Z,86.50
2017-07-06T03:20:31.667Z,86.50
2017-07-06T03:22:59.945Z,86.50
2017-07-06T03:25:27.492Z,86.00
2017-07-06T03:27:55.020Z,86.00
2017-07-06T03:30:23.686Z,86.10
2017-07-06T03:32:51.617Z,86.20
2017-07-06T03:35:19.168Z,86.30
2017-07-06T03:37:46.700Z,86.20
2017-07-06T03:40:14.306Z,85.80
2017-07-06T03:42:41.857Z,86.30
2017-07-06T03:45:09.387Z,86.40
2017-07-06T03:47:37.963Z,86.50
2017-07-06T03:50:05.491Z,86.70
2017-07-06T03:52:36.736Z,86.40
2017-07-06T03:55:04.677Z,86.30
2017-07-06T03:57:32.217Z,86.30
2017-07-06T03:59:59.751Z,86.50
2017-07-06T04:02:30.045Z,86.50
2017-07-06T04:04:58.147Z,86.60
2017-07-06T04:07:30.834Z,86.60
2017-07-06T04:09:58.380Z,86.90
2017-07-06T04:12:25.916Z,87.30
2017-07-06T04:14:53.476Z,87.70
2017-07-06T04:17:21.431Z,87.60
2017-07-06T04:19:49.385Z,87.60
2017-07-06T04:22:16.940Z,87.60
2017-07-06T04:24:48.382Z,87.40
2017-07-06T04:27:22.494Z,87.60
2017-07-06T04:29:56.499Z,88.00
2017-07-06T04:32:29.224Z,87.90
2017-07-06T04:34:56.802Z,87.90
2017-07-06T04:37:24.347Z,88.10
2017-07-06T04:39:55.321Z,88.00
2017-07-06T04:42:22.851Z,88.10
2017-07-06T04:44:53.035Z,87.70
2017-07-06T04:47:25.018Z,87.60
2017-07-06T04:49:52.566Z,87.60
2017-07-06T04:52:21.071Z,87.90
2017-07-06T04:54:52.915Z,87.90
2017-07-06T04:57:20.441Z,88.10
2017-07-06T04:59:50.689Z,88.70
2017-07-06T05:02:25.966Z,88.70
2017-07-06T05:04:53.523Z,88.70
2017-07-06T05:07:23.121Z,88.50
2017-07-06T05:09:50.667Z,88.10
2017-07-06T05:12:18.225Z,88.10
2017-07-06T05:14:46.093Z,88.10
2017-07-06T05:17:13.654Z,88.10
2017-07-06T05:19:41.190Z,88.30
2017-07-06T05:22:09.146Z,88.20
2017-07-06T05:24:40.470Z,88.20
2017-07-06T05:27:10.899Z,88.30
2017-07-06T05:29:38.466Z,88.30
2017-07-06T05:32:08.689Z,87.90
2017-07-06T05:34:36.246Z,87.20
2017-07-06T05:37:03.772Z,86.60
2017-07-06T05:39:31.329Z,86.00
2017-07-06T05:41:59.678Z,84.90
2017-07-06T05:44:31.707Z,84.70
2017-07-06T05:47:00.436Z,83.60
2017-07-06T05:49:28.026Z,82.90
2017-07-06T05:51:55.571Z,83.50
2017-07-06T05:54:23.108Z,83.00
2017-07-06T05:56:50.722Z,80.80
2017-07-06T05:59:18.275Z,80.80
2017-07-06T06:01:45.828Z,80.20
2017-07-06T06:04:17.515Z,79.60
2017-07-06T06:06:45.483Z,79.20
2017-07-06T06:09:13.426Z,77.70
2017-07-06T06:11:43.597Z,77.70
2017-07-06T06:14:13.820Z,78.20
2017-07-06T06:16:41.376Z,79.00
2017-07-06T06:19:08.941Z,78.10
2017-07-06T06:21:36.464Z,76.80
2017-07-06T06:24:04.420Z,76.30
2017-07-06T06:26:31.958Z,76.30
2017-07-06T06:29:01.157Z,76.10
2017-07-06T06:31:29.312Z,76.30
2017-07-06T06:33:59.325Z,75.50
2017-07-06T06:36:26.879Z,75.60
2017-07-06T06:38:57.323Z,75.40
2017-07-06T06:41:24.873Z,75.30
2017-07-06T06:43:52.425Z,74.90
2017-07-06T06:46:19.983Z,75.60
2017-07-06T06:48:47.547Z,74.90
2017-07-06T06:51:15.164Z,74.20
2017-07-06T06:53:42.681Z,73.80
2017-07-06T06:56:10.255Z,73.20
2017-07-06T06:58:37.830Z,72.90
2017-07-06T07:01:05.758Z,73.10
2017-07-06T07:03:33.326Z,73.00
2017-07-06T07:06:01.728Z,72.20
2017-07-06T07:08:29.345Z,71.20
2017-07-06T07:10:56.933Z,70.80
2017-07-06T07:13:24.501Z,71.10
2017-07-06T07:15:52.458Z,70.40
2017-07-06T07:18:20.041Z,70.40
2017-07-06T07:20:47.628Z,71.00
2017-07-06T07:23:17.129Z,70.60
2017-07-06T07:25:44.718Z,69.30
2017-07-06T07:28:12.258Z,70.10
2017-07-06T07:30:39.811Z,69.00
2017-07-06T07:33:07.351Z,69.00
2017-07-06T07:35:34.938Z,67.40
2017-07-06T07:38:03.092Z,68.80
2017-07-06T07:40:32.992Z,67.90
2017-07-06T07:43:01.770Z,68.00
2017-07-06T07:45:30.740Z,67.40
2017-07-06T07:47:58.320Z,67.40
2017-07-06T07:50:26.284Z,67.20
2017-07-06T07:52:54.258Z,66.40
2017-07-06T07:55:22.207Z,65.90
2017-07-06T07:57:49.776Z,65.90
2017-07-06T08:00:20.022Z,65.60
2017-07-06T08:02:47.562Z,65.00
2017-07-06T08:05:15.568Z,65.20
2017-07-06T08:07:43.104Z,65.20
2017-07-06T08:10:11.052Z,65.20
2017-07-06T08:12:38.633Z,65.20
2017-07-06T08:15:06.205Z,63.80
2017-07-06T08:17:33.744Z,63.90
2017-07-06T08:20:01.325Z,64.40
2017-07-06T08:22:29.309Z,64.40
2017-07-06T08:24:57.185Z,63.70
2017-07-06T08:27:24.753Z,63.50
2017-07-06T08:29:52.301Z,63.00
2017-07-06T08:32:19.855Z,62.30
2017-07-06T08:34:47.387Z,62.60
2017-07-06T08:37:14.954Z,63.40
2017-07-06T08:39:42.526Z,63.30
2017-07-06T08:42:10.089Z,63.20
2017-07-06T08:44:37.617Z,63.10
2017-07-06T08:47:05.152Z,62.50
2017-07-06T08:49:32.716Z,61.70
2017-07-06T08:52:01.779Z,62.30
2017-07-06T08:54:29.324Z,62.30
2017-07-06T08:56:56.950Z,60.50
2017-07-06T08:59:24.515Z,61.10
2017-07-06T09:01:52.069Z,61.90
2017-07-06T09:04:19.636Z,61.70
2017-07-06T09:06:47.195Z,61.80
2017-07-06T09:09:14.753Z,61.20
2017-07-06T09:11:42.470Z,62.10
2017-07-06T09:14:10.024Z,62.40
2017-07-06T09:16:37.580Z,61.60
2017-07-06T09:19:05.137Z,60.90
2017-07-06T09:21:32.710Z,60.20
2017-07-06T09:24:00.993Z,60.60
2017-07-06T09:26:29.369Z,59.50
2017-07-06T09:28:56.934Z,59.50
2017-07-06T09:31:24.858Z,58.70
2017-07-06T09:33:52.433Z,58.70
2017-07-06T09:36:20.000Z,58.60
2017-07-06T09:38:47.575Z,59.10
2017-07-06T09:41:15.124Z,58.10
2017-07-06T09:43:42.711Z,58.00
2017-07-06T09:46:10.251Z,58.80
2017-07-06T09:48:37.811Z,58.00
2017-07-06T09:51:05.337Z,58.10
2017-07-06T09:53:32.898Z,58.20
2017-07-06T09:56:01.434Z,58.00
2017-07-06T09:58:29.963Z,57.50
2017-07-06T10:00:57.521Z,59.60
2017-07-06T10:03:25.077Z,59.30
2017-07-06T10:05:52.649Z,57.50
2017-07-06T10:08:20.180Z,58.60
2017-07-06T10:10:47.737Z,59.10
2017-07-06T10:13:15.295Z,58.50
2017-07-06T10:15:43.870Z,58.40
2017-07-06T10:18:15.297Z,57.40
2017-07-06T10:20:42.852Z,57.20
2017-07-06T10:23:10.405Z,55.70
2017-07-06T10:25:37.947Z,55.50
2017-07-06T10:28:05.917Z,54.80
2017-07-06T10:30:33.454Z,54.80
2017-07-06T10:33:01.015Z,55.90
2017-07-06T10:35:28.555Z,53.70
2017-07-06T10:37:56.090Z,54.40
2017-07-06T10:40:23.654Z,55.30
2017-07-06T10:42:51.200Z,55.10
2017-07-06T10:45:18.763Z,55.20
2017-07-06T10:47:46.296Z,54.50
2017-07-06T10:50:13.862Z,55.20
2017-07-06T10:52:41.415Z,54.40
2017-07-06T10:55:08.949Z,55.80
2017-07-06T10:57:36.894Z,54.10
2017-07-06T11:00:04.488Z,54.20
2017-07-06T11:02:32.436Z,54.40
2017-07-06T11:04:59.991Z,54.40
2017-07-06T11:07:27.544Z,53.90
2017-07-06T11:09:55.086Z,54.90
2017-07-06T11:12:22.636Z,54.70
2017-07-06T11:14:50.179Z,54.60
2017-07-06T11:17:17.719Z,53.30
2017-07-06T11:19:45.705Z,54.50
2017-07-06T11:22:24.295Z,55.60
2017-07-06T11:24:51.834Z,55.80
2017-07-06T11:27:19.761Z,55.20
2017-07-06T11:29:47.300Z,55.20
2017-07-06T11:32:14.844Z,51.50
2017-07-06T11:34:42.373Z,52.50
2017-07-06T11:37:10.385Z,52.90
2017-07-06T11:39:37.937Z,52.90
2017-07-06T11:42:05.494Z,49.50
2017-07-06T11:44:33.025Z,49.30
2017-07-06T11:47:00.589Z,50.00
2017-07-06T11:49:28.134Z,51.30
2017-07-06T11:51:56.464Z,51.20
2017-07-06T11:54:24.025Z,51.10
2017-07-06T11:56:51.562Z,48.40
2017-07-06T11:59:19.133Z,48.80
2017-07-06T12:01:46.681Z,49.10
2017-07-06T12:04:14.242Z,49.30
2017-07-06T12:06:41.777Z,48.60
2017-07-06T12:09:09.348Z,47.50
2017-07-06T12:11:36.875Z,47.90
2017-07-06T12:14:04.396Z,47.90
2017-07-06T12:16:32.037Z,47.50
2017-07-06T12:18:59.565Z,47.80
2017-07-06T12:21:27.524Z,46.30
2017-07-06T12:23:55.457Z,46.20
2017-07-06T12:26:24.026Z,46.20
2017-07-06T12:28:51.570Z,47.10
2017-07-06T12:31:19.125Z,47.10
2017-07-06T12:33:46.685Z,47.20
2017-07-06T12:36:14.221Z,47.50
2017-07-06T12:38:41.836Z,48.30
2017-07-06T12:41:09.371Z,48.20
2017-07-06T12:43:36.921Z,46.90
2017-07-06T12:46:04.446Z,47.60
2017-07-06T12:48:32.402Z,47.30
2017-07-06T12:51:00.599Z,47.30
2017-07-06T12:53:28.159Z,47.20
2017-07-06T12:55:55.686Z,46.90
2017-07-06T12:58:23.224Z,46.90
2017-07-06T13:00:50.764Z,47.90
2017-07-06T13:03:18.316Z,46.70
2017-07-06T13:05:47.324Z,47.80
2017-07-06T13:08:14.844Z,48.70
2017-07-06T13:10:42.410Z,49.60
2017-07-06T13:13:09.944Z,49.50
2017-07-06T13:15:37.497Z,49.00
2017-07-06T13:18:05.432Z,48.40
2017-07-06T13:20:32.956Z,48.40
2017-07-06T13:23:00.524Z,49.00
2017-07-06T13:25:28.106Z,50.30
2017-07-06T13:27:55.679Z,50.00
2017-07-06T13:30:23.213Z,50.90
2017-07-06T13:32:50.749Z,50.20
2017-07-06T13:35:18.272Z,50.40
2017-07-06T13:37:45.858Z,51.00
2017-07-06T13:40:13.388Z,51.20
2017-07-06T13:42:41.321Z,52.40
2017-07-06T13:45:08.873Z,52.40
2017-07-06T13:47:36.581Z,52.50
2017-07-06T13:50:05.174Z,52.30
2017-07-06T13:52:32.709Z,52.30
2017-07-06T13:55:00.279Z,52.40
2017-07-06T13:57:27.842Z,53.00
2017-07-06T13:59:55.815Z,54.20
2017-07-06T14:02:23.360Z,54.20
2017-07-06T14:04:51.285Z,54.70
2017-07-06T14:07:18.846Z,54.80
2017-07-06T14:09:46.380Z,55.00
2017-07-06T14:12:13.976Z,54.30
2017-07-06T14:14:41.520Z,54.80
2017-07-06T14:17:09.082Z,54.50
2017-07-06T14:19:36.627Z,55.20
2017-07-06T14:22:04.292Z,55.20
2017-07-06T14:24:32.968Z,56.20
2017-07-06T14:27:00.507Z,55.70
2017-07-06T14:29:28.521Z,56.70
2017-07-06T14:31:56.037Z,56.80
2017-07-06T14:34:23.600Z,56.80
2017-07-06T14:36:51.135Z,57.20
2017-07-06T14:39:19.072Z,57.50
2017-07-06T14:41:46.656Z,57.50
2017-07-06T14:44:14.221Z,57.90
2017-07-06T14:46:41.787Z,58.20
2017-07-06T14:49:09.335Z,59.00
2017-07-06T14:51:37.298Z,60.90
2017-07-06T14:54:05.255Z,62.00
2017-07-06T14:56:32.829Z,62.00
2017-07-06T14:59:00.854Z,62.40
2017-07-06T15:01:28.614Z,62.40
2017-07-06T15:03:56.222Z,65.00
2017-07-06T15:06:24.149Z,73.00
2017-07-06T15:08:51.815Z,73.00
2017-07-06T15:11:19.361Z,74.50
2017-07-06T15:13:47.001Z,76.80
2017-07-06T15:16:17.943Z,76.80
2017-07-06T15:18:45.492Z,79.00
2017-07-06T15:21:13.187Z,80.00
2017-07-06T15:23:40.734Z,82.70
2017-07-06T15:26:08.289Z,83.90
2017-07-06T15:28:35.856Z,83.70
2017-07-06T15:31:05.202Z,85.70
2017-07-06T15:33:32.784Z,85.20
2017-07-06T15:36:00.340Z,85.90
2017-07-06T15:38:27.970Z,87.80
2017-07-06T15:40:55.626Z,86.30
2017-07-06T15:43:23.220Z,86.50
2017-07-06T15:45:50.765Z,87.20
2017-07-06T15:48:18.330Z,88.10
2017-07-06T15:50:45.889Z,89.20
2017-07-06T15:53:13.460Z,90.70
2017-07-06T15:55:41.035Z,89.80
2017-07-06T15:58:08.599Z,90.50
2017-07-06T16:00:36.203Z,90.70
2017-07-06T16:03:04.123Z,89.40
2017-07-06T16:05:31.684Z,89.40
2017-07-06T16:08:07.816Z,91.30
2017-07-06T16:10:35.375Z,91.00
2017-07-06T16:13:02.920Z,90.50
2017-07-06T16:15:30.464Z,90.60
2017-07-06T16:17:58.426Z,88.70
2017-07-06T16:20:26.368Z,88.90
2017-07-06T16:22:53.906Z,88.90
2017-07-06T16:25:21.440Z,87.40
2017-07-06T16:27:48.996Z,89.10
2017-07-06T16:30:16.540Z,89.30
2017-07-06T16:32:44.467Z,87.90
2017-07-06T16:35:12.033Z,87.90
2017-07-06T16:37:39.601Z,88.80
2017-07-06T16:40:07.173Z,87.50
2017-07-06T16:42:34.714Z,87.30
2017-07-06T16:45:02.292Z,86.70
2017-07-06T16:47:29.909Z,87.30
2017-07-06T16:49:57.437Z,87.00
2017-07-06T16:52:26.330Z,87.10
2017-07-06T16:54:53.912Z,87.90
2017-07-06T16:57:21.572Z,87.80
2017-07-06T16:59:49.116Z,89.40
2017-07-06T17:02:16.749Z,90.90
2017-07-06T17:04:44.739Z,90.70
2017-07-06T17:07:12.301Z,90.70
2017-07-06T17:09:39.992Z,89.20
2017-07-06T17:12:07.634Z,89.10
2017-07-06T17:14:36.070Z,88.60
2017-07-06T17:17:03.801Z,87.80
2017-07-06T17:19:31.542Z,87.70
2017-07-06T17:21:59.087Z,87.30
2017-07-06T17:24:26.625Z,87.30
2017-07-06T17:26:54.270Z,87.40
2017-07-06T17:29:21.903Z,87.80
2017-07-06T17:31:49.442Z,87.70
2017-07-06T17:34:18.273Z,88.30
2017-07-06T17:36:46.251Z,88.20
2017-07-06T17:39:13.803Z,88.20
2017-07-06T17:41:41.328Z,87.70
2017-07-06T17:44:11.371Z,87.80
2017-07-06T17:46:39.466Z,88.60
2017-07-06T17:49:07.042Z,88.60
2017-07-06T17:51:34.672Z,87.90
2017-07-06T17:54:02.246Z,87.50
2017-07-06T17:56:29.787Z,87.30
2017-07-06T17:58:59.004Z,87.10
2017-07-06T18:01:26.618Z,87.10
2017-07-06T18:03:54.208Z,87.10
2017-07-06T18:06:22.146Z,86.40
2017-07-06T18:08:51.519Z,86.40
2017-07-06T18:11:19.088Z,86.00
2017-07-06T18:13:46.616Z,86.40
2017-07-06T18:16:14.173Z,86.30
2017-07-06T18:18:41.733Z,87.00
2017-07-06T18:21:09.278Z,87.00
2017-07-06T18:23:37.353Z,86.70
2017-07-06T18:26:04.869Z,86.90
2017-07-06T18:28:32.433Z,86.90
2017-07-06T18:30:59.968Z,87.50
2017-07-06T18:33:27.516Z,87.30
2017-07-06T18:35:55.036Z,87.00
2017-07-06T18:38:22.985Z,87.40
2017-07-06T18:40:50.508Z,87.40
2017-07-06T18:43:18.088Z,87.30
2017-07-06T18:45:45.629Z,87.00
2017-07-06T18:48:13.163Z,86.60
2017-07-06T18:50:40.791Z,86.80
2017-07-06T18:53:08.486Z,86.40
2017-07-06T18:55:37.313Z,86.10
2017-07-06T18:58:05.257Z,86.00
2017-07-06T19:00:32.869Z,86.20
2017-07-06T19:03:00.825Z,85.90
2017-07-06T19:05:28.930Z,85.80
2017-07-06T19:07:56.510Z,85.90
2017-07-06T19:10:24.143Z,85.90
2017-07-06T19:12:51.687Z,86.20
2017-07-06T19:15:19.603Z,86.20
2017-07-06T19:17:47.215Z,86.10
2017-07-06T19:20:15.172Z,86.00
2017-07-06T19:22:43.096Z,85.30
2017-07-06T19:25:10.883Z,85.30
2017-07-06T19:27:38.420Z,85.60
2017-07-06T19:30:06.741Z,85.60
2017-07-06T19:32:35.365Z,85.80
2017-07-06T19:35:04.728Z,85.90
2017-07-06T19:37:32.305Z,85.90
2017-07-06T19:40:00.170Z,85.60
2017-07-06T19:42:27.738Z,85.40
2017-07-06T19:44:55.430Z,85.30
2017-07-06T19:47:22.974Z,85.60
2017-07-06T19:49:50.624Z,85.30
2017-07-06T19:52:18.160Z,85.20
2017-07-06T19:54:45.904Z,85.40
2017-07-06T19:57:13.890Z,85.70
2017-07-06T19:59:41.433Z,85.70
2017-07-06T20:02:09.016Z,85.60
2017-07-06T20:04:37.899Z,85.70
2017-07-06T20:07:06.573Z,85.70
2017-07-06T20:09:35.299Z,85.70
2017-07-06T20:12:03.005Z,85.70
2017-07-06T20:14:31.011Z,86.20
2017-07-06T20:16:59.048Z,86.10
2017-07-06T20:19:27.077Z,86.10
2017-07-06T20:21:54.598Z,86.10
2017-07-06T20:24:23.317Z,86.10
2017-07-06T20:26:50.890Z,86.10
2017-07-06T20:29:18.468Z,86.20
2017-07-06T20:31:51.830Z,86.40
2017-07-06T20:34:19.362Z,86.30
2017-07-06T20:36:46.901Z,86.60
2017-07-06T20:39:14.867Z,87.00
2017-07-06T20:41:44.801Z,87.00
2017-07-06T20:44:12.538Z,87.00
2017-07-06T20:46:41.559Z,86.70
2017-07-06T20:49:09.096Z,86.70
2017-07-06T20:51:37.284Z,86.60
2017-07-06T20:54:04.987Z,86.50
2017-07-06T20:56:32.572Z,86.50
2017-07-06T20:59:00.125Z,86.30
2017-07-06T21:01:31.487Z,86.30
2017-07-06T21:03:59.060Z,86.00
2017-07-06T21:06:30.487Z,86.10
2017-07-06T21:09:01.524Z,86.10
2017-07-06T21:11:29.069Z,86.10
2017-07-06T21:13:59.529Z,86.00
2017-07-06T21:16:29.561Z,86.10
2017-07-06T21:18:57.095Z,86.10
2017-07-06T21:21:24.687Z,86.10
2017-07-06T21:23:52.224Z,86.20
2017-07-06T21:26:25.051Z,86.30
2017-07-06T21:28:52.601Z,86.30
2017-07-06T21:31:20.153Z,86.30
2017-07-06T21:33:47.691Z,86.20
2017-07-06T21:36:15.236Z,86.20
2017-07-06T21:38:42.803Z,86.00
2017-07-06T21:41:10.367Z,86.10
2017-07-06T21:43:37.919Z,85.80
2017-07-06T21:46:05.855Z,85.40
2017-07-06T21:48:33.394Z,85.40
2017-07-06T21:51:00.928Z,85.30
2017-07-06T21:53:28.453Z,85.30
2017-07-06T21:55:56.395Z,85.20
2017-07-06T21:58:23.925Z,85.20
2017-07-06T22:00:53.005Z,85.10
2017-07-06T22:03:20.549Z,85.10
2017-07-06T22:05:48.123Z,85.00
2017-07-06T22:08:18.535Z,85.00
2017-07-06T22:10:46.093Z,85.10
2017-07-06T22:13:13.628Z,85.00
2017-07-06T22:15:44.872Z,85.00
2017-07-06T22:18:12.600Z,85.00
2017-07-06T22:20:40.234Z,84.70
2017-07-06T22:23:08.214Z,84.80
2017-07-06T22:25:35.744Z,84.60
2017-07-06T22:28:08.241Z,84.70
2017-07-06T22:30:35.770Z,84.90
2017-07-06T22:33:03.317Z,84.50
2017-07-06T22:35:32.029Z,85.80
2017-07-06T22:37:59.565Z,85.80
2017-07-06T22:40:30.082Z,85.80
2017-07-06T22:42:57.637Z,85.80
2017-07-06T22:45:25.593Z,85.70
2017-07-06T22:47:53.125Z,85.70
2017-07-06T22:50:21.120Z,85.90
2017-07-06T22:52:48.681Z,86.00
2017-07-06T22:55:16.341Z,86.10
2017-07-06T22:57:43.876Z,86.40
2017-07-06T23:00:11.403Z,86.60
2017-07-06T23:02:38.974Z,86.70
2017-07-06T23:05:07.893Z,86.60
2017-07-06T23:07:36.117Z,86.60
2017-07-06T23:10:03.649Z,86.60
2017-07-06T23:12:31.628Z,86.40
2017-07-06T23:15:01.167Z,86.40
2017-07-06T23:17:32.631Z,86.40
2017-07-06T23:20:00.187Z,86.40
2017-07-06T23:22:29.172Z,85.40
2017-07-06T23:25:00.461Z,85.00
2017-07-06T23:27:28.413Z,83.20
2017-07-06T23:29:55.956Z,83.20
2017-07-06T23:32:23.482Z,82.90
2017-07-06T23:34:51.081Z,83.50
2017-07-06T23:37:22.196Z,82.50
2017-07-06T23:39:49.786Z,82.60
2017-07-06T23:42:17.313Z,82.70
2017-07-06T23:44:44.850Z,82.60
2017-07-06T23:47:12.411Z,82.80
2017-07-06T23:49:40.080Z,82.80
2017-07-06T23:52:07.641Z,82.70
2017-07-06T23:54:35.212Z,82.50
2017-07-06T23:57:02.773Z,82.50
2017-07-06T23:59:30.314Z,82.60
